sensor_id;sensor_type;location;lat;lon;timestamp;pressure;altitude;pressure_sealevel;temperature
71897;BMP280;59767;51.344;12.362;2023-02-10T00:00:39;158388.66;;;-0.85
71897;BMP280;59767;51.344;12.362;2023-02-10T00:03:43;158412.06;;;-0.76
71897;BMP280;59767;51.344;12.362;2023-02-10T00:06:47;158389.94;;;-0.84
71897;BMP280;59767;51.344;12.362;2023-02-10T00:09:51;158389.94;;;-0.84
71897;BMP280;59767;51.344;12.362;2023-02-10T00:12:56;158371.75;;;-0.91
71897;BMP280;59767;51.344;12.362;2023-02-10T00:16:01;158367.88;;;-0.93
71897;BMP280;59767;51.344;12.362;2023-02-10T00:19:06;158357.44;;;-0.97
71897;BMP280;59767;51.344;12.362;2023-02-10T00:22:11;158345.75;;;-1.01
71897;BMP280;59767;51.344;12.362;2023-02-10T00:25:15;158337.97;;;-1.04
71897;BMP280;59767;51.344;12.362;2023-02-10T00:28:19;158339.28;;;-1.04
71897;BMP280;59767;51.344;12.362;2023-02-10T00:31:23;158367.88;;;-0.93
71897;BMP280;59767;51.344;12.362;2023-02-10T00:34:28;158373.09;;;-0.91
71897;BMP280;59767;51.344;12.362;2023-02-10T00:37:32;158380.88;;;-0.88
71897;BMP280;59767;51.344;12.362;2023-02-10T00:40:36;158393.88;;;-0.83
71897;BMP280;59767;51.344;12.362;2023-02-10T00:43:41;158425.06;;;-0.71
71897;BMP280;59767;51.344;12.362;2023-02-10T00:46:50;158451.09;;;-0.61
71897;BMP280;59767;51.344;12.362;2023-02-10T00:49:55;158488.81;;;-0.46
71897;BMP280;59767;51.344;12.362;2023-02-10T00:52:59;158499.19;;;-0.42
71897;BMP280;59767;51.344;12.362;2023-02-10T00:56:04;158500.50;;;-0.42
71897;BMP280;59767;51.344;12.362;2023-02-10T00:59:08;158516.09;;;-0.36
71897;BMP280;59767;51.344;12.362;2023-02-10T01:02:14;158544.75;;;-0.25
71897;BMP280;59767;51.344;12.362;2023-02-10T01:05:17;158557.78;;;-0.20
71897;BMP280;59767;51.344;12.362;2023-02-10T01:08:22;158559.03;;;-0.19
71897;BMP280;59767;51.344;12.362;2023-02-10T01:11:26;158556.47;;;-0.20
71897;BMP280;59767;51.344;12.362;2023-02-10T01:14:30;158570.78;;;-0.15
71897;BMP280;59767;51.344;12.362;2023-02-10T01:17:35;158594.19;;;-0.06
71897;BMP280;59767;51.344;12.362;2023-02-10T01:20:40;158599.41;;;-0.04
71897;BMP280;59767;51.344;12.362;2023-02-10T01:23:45;158605.91;;;-0.01
71897;BMP280;59767;51.344;12.362;2023-02-10T01:26:50;158620.22;;;0.05
71897;BMP280;59767;51.344;12.362;2023-02-10T01:29:54;158611.13;;;0.01
71897;BMP280;59767;51.344;12.362;2023-02-10T01:32:58;158628.03;;;0.08
71897;BMP280;59767;51.344;12.362;2023-02-10T01:36:04;158628.03;;;0.08
71897;BMP280;59767;51.344;12.362;2023-02-10T01:39:08;158635.81;;;0.11
71897;BMP280;59767;51.344;12.362;2023-02-10T01:42:14;158641.06;;;0.13
71897;BMP280;59767;51.344;12.362;2023-02-10T01:45:22;158648.84;;;0.16
71897;BMP280;59767;51.344;12.362;2023-02-10T01:48:28;158659.22;;;0.20
71897;BMP280;59767;51.344;12.362;2023-02-10T01:51:45;158668.34;;;0.23
71897;BMP280;59767;51.344;12.362;2023-02-10T01:55:01;158672.25;;;0.25
71897;BMP280;59767;51.344;12.362;2023-02-10T01:58:09;158685.28;;;0.30
71897;BMP280;59767;51.344;12.362;2023-02-10T02:01:13;158686.59;;;0.30
71897;BMP280;59767;51.344;12.362;2023-02-10T02:04:18;158703.41;;;0.37
71897;BMP280;59767;51.344;12.362;2023-02-10T02:07:26;158709.94;;;0.39
71897;BMP280;59767;51.344;12.362;2023-02-10T02:10:45;158719.06;;;0.43
71897;BMP280;59767;51.344;12.362;2023-02-10T02:27:04;158747.69;;;0.54
71897;BMP280;59767;51.344;12.362;2023-02-10T02:33:43;158765.88;;;0.61
71897;BMP280;59767;51.344;12.362;2023-02-10T02:36:56;158773.69;;;0.64
71897;BMP280;59767;51.344;12.362;2023-02-10T02:40:01;158765.88;;;0.61
71897;BMP280;59767;51.344;12.362;2023-02-10T02:43:06;158769.78;;;0.62
71897;BMP280;59767;51.344;12.362;2023-02-10T02:46:21;158767.22;;;0.61
71897;BMP280;59767;51.344;12.362;2023-02-10T02:49:41;158767.22;;;0.61
71897;BMP280;59767;51.344;12.362;2023-02-10T02:56:12;158804.97;;;0.76
71897;BMP280;59767;51.344;12.362;2023-02-10T02:59:25;158810.19;;;0.78
71897;BMP280;59767;51.344;12.362;2023-02-10T03:02:32;158816.66;;;0.80
71897;BMP280;59767;51.344;12.362;2023-02-10T03:05:38;158804.97;;;0.76
71897;BMP280;59767;51.344;12.362;2023-02-10T03:08:42;158812.78;;;0.79
71897;BMP280;59767;51.344;12.362;2023-02-10T03:11:46;158812.78;;;0.79
71897;BMP280;59767;51.344;12.362;2023-02-10T03:14:51;158840.09;;;0.89
71897;BMP280;59767;51.344;12.362;2023-02-10T03:17:54;158860.94;;;0.97
71897;BMP280;59767;51.344;12.362;2023-02-10T03:20:59;158857.03;;;0.96
71897;BMP280;59767;51.344;12.362;2023-02-10T03:24:03;158832.28;;;0.86
71897;BMP280;59767;51.344;12.362;2023-02-10T03:27:07;158850.53;;;0.93
71897;BMP280;59767;51.344;12.362;2023-02-10T03:30:12;158855.75;;;0.95
71897;BMP280;59767;51.344;12.362;2023-02-10T03:33:16;158870.03;;;1.01
71897;BMP280;59767;51.344;12.362;2023-02-10T03:36:21;158862.25;;;0.98
71897;BMP280;59767;51.344;12.362;2023-02-10T03:39:25;158880.50;;;1.05
71897;BMP280;59767;51.344;12.362;2023-02-10T03:42:29;158879.16;;;1.04
71897;BMP280;59767;51.344;12.362;2023-02-10T03:45:33;158875.28;;;1.03
71897;BMP280;59767;51.344;12.362;2023-02-10T03:48:37;158855.75;;;0.95
71897;BMP280;59767;51.344;12.362;2023-02-10T03:51:41;158844.00;;;0.91
71897;BMP280;59767;51.344;12.362;2023-02-10T03:54:46;158847.91;;;0.92
71897;BMP280;59767;51.344;12.362;2023-02-10T03:57:50;158854.44;;;0.95
71897;BMP280;59767;51.344;12.362;2023-02-10T04:00:55;158851.84;;;0.94
71897;BMP280;59767;51.344;12.362;2023-02-10T04:03:59;158859.66;;;0.97
71897;BMP280;59767;51.344;12.362;2023-02-10T04:07:04;158860.94;;;0.97
71897;BMP280;59767;51.344;12.362;2023-02-10T04:10:08;158857.03;;;0.96
71897;BMP280;59767;51.344;12.362;2023-02-10T04:13:12;158868.72;;;1.00
71897;BMP280;59767;51.344;12.362;2023-02-10T04:16:17;158877.84;;;1.04
71897;BMP280;59767;51.344;12.362;2023-02-10T04:19:23;158888.28;;;1.08
71897;BMP280;59767;51.344;12.362;2023-02-10T04:22:27;158879.16;;;1.04
71897;BMP280;59767;51.344;12.362;2023-02-10T04:25:31;158884.41;;;1.06
71897;BMP280;59767;51.344;12.362;2023-02-10T04:28:36;158888.28;;;1.08
71897;BMP280;59767;51.344;12.362;2023-02-10T04:31:40;158881.75;;;1.05
71897;BMP280;59767;51.344;12.362;2023-02-10T04:34:44;158885.66;;;1.07
71897;BMP280;59767;51.344;12.362;2023-02-10T04:37:48;158894.78;;;1.10
71897;BMP280;59767;51.344;12.362;2023-02-10T04:40:53;158881.75;;;1.05
71897;BMP280;59767;51.344;12.362;2023-02-10T04:43:57;158879.16;;;1.04
71897;BMP280;59767;51.344;12.362;2023-02-10T04:47:01;158871.38;;;1.01
71897;BMP280;59767;51.344;12.362;2023-02-10T04:50:05;158885.66;;;1.07
71897;BMP280;59767;51.344;12.362;2023-02-10T04:53:10;158877.84;;;1.04
71897;BMP280;59767;51.344;12.362;2023-02-10T04:56:14;158862.25;;;0.98
71897;BMP280;59767;51.344;12.362;2023-02-10T04:59:19;158881.75;;;1.05
71897;BMP280;59767;51.344;12.362;2023-02-10T05:02:23;158880.50;;;1.05
71897;BMP280;59767;51.344;12.362;2023-02-10T05:05:27;158868.72;;;1.00
71897;BMP280;59767;51.344;12.362;2023-02-10T05:08:31;158885.66;;;1.07
71897;BMP280;59767;51.344;12.362;2023-02-10T05:11:36;158892.22;;;1.09
71897;BMP280;59767;51.344;12.362;2023-02-10T05:14:40;158896.09;;;1.11
71897;BMP280;59767;51.344;12.362;2023-02-10T05:17:44;158888.28;;;1.08
71897;BMP280;59767;51.344;12.362;2023-02-10T05:20:48;158894.78;;;1.10
71897;BMP280;59767;51.344;12.362;2023-02-10T05:23:53;158877.84;;;1.04
71897;BMP280;59767;51.344;12.362;2023-02-10T05:26:57;158906.50;;;1.15
71897;BMP280;59767;51.344;12.362;2023-02-10T05:30:02;158897.38;;;1.11
71897;BMP280;59767;51.344;12.362;2023-02-10T05:33:08;158906.50;;;1.15
71897;BMP280;59767;51.344;12.362;2023-02-10T05:36:12;158888.28;;;1.08
71897;BMP280;59767;51.344;12.362;2023-02-10T05:39:16;158898.69;;;1.12
71897;BMP280;59767;51.344;12.362;2023-02-10T05:42:27;158885.66;;;1.07
71897;BMP280;59767;51.344;12.362;2023-02-10T05:45:31;158901.34;;;1.13
71897;BMP280;59767;51.344;12.362;2023-02-10T05:48:35;158901.34;;;1.13
71897;BMP280;59767;51.344;12.362;2023-02-10T05:51:40;158909.13;;;1.16
71897;BMP280;59767;51.344;12.362;2023-02-10T05:54:44;158897.38;;;1.11
71897;BMP280;59767;51.344;12.362;2023-02-10T05:57:51;158892.22;;;1.09
71897;BMP280;59767;51.344;12.362;2023-02-10T06:00:55;158897.38;;;1.11
71897;BMP280;59767;51.344;12.362;2023-02-10T06:04:00;158903.91;;;1.14
71897;BMP280;59767;51.344;12.362;2023-02-10T06:07:04;158910.41;;;1.16
71897;BMP280;59767;51.344;12.362;2023-02-10T06:10:08;158918.22;;;1.19
71897;BMP280;59767;51.344;12.362;2023-02-10T06:13:13;158919.53;;;1.20
71897;BMP280;59767;51.344;12.362;2023-02-10T06:16:17;158902.59;;;1.13
71897;BMP280;59767;51.344;12.362;2023-02-10T06:19:21;158919.53;;;1.20
71897;BMP280;59767;51.344;12.362;2023-02-10T06:22:25;158935.16;;;1.26
71897;BMP280;59767;51.344;12.362;2023-02-10T06:25:29;158923.44;;;1.21
71897;BMP280;59767;51.344;12.362;2023-02-10T06:28:34;158929.97;;;1.24
71897;BMP280;59767;51.344;12.362;2023-02-10T06:31:38;158941.69;;;1.28
71897;BMP280;59767;51.344;12.362;2023-02-10T06:34:42;158948.16;;;1.31
71897;BMP280;59767;51.344;12.362;2023-02-10T06:37:46;158940.38;;;1.28
71897;BMP280;59767;51.344;12.362;2023-02-10T06:40:51;158933.88;;;1.25
71897;BMP280;59767;51.344;12.362;2023-02-10T06:43:55;158937.78;;;1.27
71897;BMP280;59767;51.344;12.362;2023-02-10T06:46:59;158927.34;;;1.23
71897;BMP280;59767;51.344;12.362;2023-02-10T06:50:04;158968.97;;;1.39
71897;BMP280;59767;51.344;12.362;2023-02-10T06:53:08;158983.31;;;1.44
71897;BMP280;59767;51.344;12.362;2023-02-10T06:56:13;158980.69;;;1.43
71897;BMP280;59767;51.344;12.362;2023-02-10T06:59:17;158995.03;;;1.49
71897;BMP280;59767;51.344;12.362;2023-02-10T07:02:21;159013.25;;;1.56
71897;BMP280;59767;51.344;12.362;2023-02-10T07:05:26;159017.16;;;1.57
71897;BMP280;59767;51.344;12.362;2023-02-10T07:08:30;159005.44;;;1.53
71897;BMP280;59767;51.344;12.362;2023-02-10T07:11:35;159010.66;;;1.55
71897;BMP280;59767;51.344;12.362;2023-02-10T07:14:39;159030.19;;;1.62
71897;BMP280;59767;51.344;12.362;2023-02-10T07:17:43;159044.53;;;1.68
71897;BMP280;59767;51.344;12.362;2023-02-10T07:20:49;159048.44;;;1.70
71897;BMP280;59767;51.344;12.362;2023-02-10T07:23:53;159065.38;;;1.76
71897;BMP280;59767;51.344;12.362;2023-02-10T07:26:58;159061.47;;;1.75
71897;BMP280;59767;51.344;12.362;2023-02-10T07:30:02;159084.91;;;1.84
71897;BMP280;59767;51.344;12.362;2023-02-10T07:33:06;159079.69;;;1.82
71897;BMP280;59767;51.344;12.362;2023-02-10T07:36:11;159094.00;;;1.87
71897;BMP280;59767;51.344;12.362;2023-02-10T07:39:15;159090.06;;;1.86
71897;BMP280;59767;51.344;12.362;2023-02-10T07:42:19;159088.75;;;1.85
71897;BMP280;59767;51.344;12.362;2023-02-10T07:45:23;159095.31;;;1.88
71897;BMP280;59767;51.344;12.362;2023-02-10T07:48:29;159100.47;;;1.90
71897;BMP280;59767;51.344;12.362;2023-02-10T07:51:34;159100.47;;;1.90
71897;BMP280;59767;51.344;12.362;2023-02-10T07:54:38;159094.00;;;1.87
71897;BMP280;59767;51.344;12.362;2023-02-10T07:57:42;159110.94;;;1.94
71897;BMP280;59767;51.344;12.362;2023-02-10T08:00:46;159118.75;;;1.97
71897;BMP280;59767;51.344;12.362;2023-02-10T08:03:51;159151.31;;;2.09
71897;BMP280;59767;51.344;12.362;2023-02-10T08:06:55;159136.94;;;2.04
71897;BMP280;59767;51.344;12.362;2023-02-10T08:09:59;159143.50;;;2.06
71897;BMP280;59767;51.344;12.362;2023-02-10T08:13:04;159139.59;;;2.05
71897;BMP280;59767;51.344;12.362;2023-02-10T08:16:09;159163.03;;;2.14
71897;BMP280;59767;51.344;12.362;2023-02-10T08:19:15;159186.47;;;2.23
71897;BMP280;59767;51.344;12.362;2023-02-10T08:22:19;159220.31;;;2.36
71897;BMP280;59767;51.344;12.362;2023-02-10T08:25:24;159185.22;;;2.22
71897;BMP280;59767;51.344;12.362;2023-02-10T08:28:28;159194.34;;;2.26
71897;BMP280;59767;51.344;12.362;2023-02-10T08:31:32;159202.09;;;2.29
71897;BMP280;59767;51.344;12.362;2023-02-10T08:34:36;159207.28;;;2.31
71897;BMP280;59767;51.344;12.362;2023-02-10T08:37:41;159221.66;;;2.36
71897;BMP280;59767;51.344;12.362;2023-02-10T08:40:53;159247.72;;;2.46
71897;BMP280;59767;51.344;12.362;2023-02-10T08:43:57;159268.59;;;2.54
71897;BMP280;59767;51.344;12.362;2023-02-10T08:47:02;159263.38;;;2.52
71897;BMP280;59767;51.344;12.362;2023-02-10T08:50:06;159284.22;;;2.60
71897;BMP280;59767;51.344;12.362;2023-02-10T08:53:10;159286.75;;;2.61
71897;BMP280;59767;51.344;12.362;2023-02-10T08:56:17;159311.53;;;2.71
71897;BMP280;59767;51.344;12.362;2023-02-10T08:59:21;159320.66;;;2.74
71897;BMP280;59767;51.344;12.362;2023-02-10T09:02:26;159370.16;;;2.93
71897;BMP280;59767;51.344;12.362;2023-02-10T09:05:30;159376.66;;;2.96
71897;BMP280;59767;51.344;12.362;2023-02-10T09:08:34;159409.31;;;3.08
71897;BMP280;59767;51.344;12.362;2023-02-10T09:11:39;159423.63;;;3.14
71897;BMP280;59767;51.344;12.362;2023-02-10T09:14:43;159427.53;;;3.15
71897;BMP280;59767;51.344;12.362;2023-02-10T09:17:48;159441.88;;;3.21
71897;BMP280;59767;51.344;12.362;2023-02-10T09:20:52;159444.44;;;3.22
71897;BMP280;59767;51.344;12.362;2023-02-10T09:23:56;159450.94;;;3.24
71897;BMP280;59767;51.344;12.362;2023-02-10T09:27:00;159482.28;;;3.36
71897;BMP280;59767;51.344;12.362;2023-02-10T09:30:05;159520.06;;;3.51
71897;BMP280;59767;51.344;12.362;2023-02-10T09:33:09;159578.75;;;3.74
71897;BMP280;59767;51.344;12.362;2023-02-10T09:36:16;159589.16;;;3.78
71897;BMP280;59767;51.344;12.362;2023-02-10T09:39:20;159610.03;;;3.86
71897;BMP280;59767;51.344;12.362;2023-02-10T09:45:50;159638.69;;;3.97
71897;BMP280;59767;51.344;12.362;2023-02-10T09:49:09;159664.81;;;4.07
71897;BMP280;59767;51.344;12.362;2023-02-10T09:55:57;159680.41;;;4.13
71897;BMP280;59767;51.344;12.362;2023-02-10T09:59:05;159645.22;;;3.99
71897;BMP280;59767;51.344;12.362;2023-02-10T10:02:31;159621.78;;;3.90
71897;BMP280;59767;51.344;12.362;2023-02-10T10:05:52;159625.63;;;3.92
71897;BMP280;59767;51.344;12.362;2023-02-10T10:12:17;159620.47;;;3.90
71897;BMP280;59767;51.344;12.362;2023-02-10T10:15:23;159636.09;;;3.96
71897;BMP280;59767;51.344;12.362;2023-02-10T10:18:43;159645.22;;;3.99
71897;BMP280;59767;51.344;12.362;2023-02-10T10:32:26;159925.66;;;5.07
71897;BMP280;59767;51.344;12.362;2023-02-10T10:35:39;159976.50;;;5.26
71897;BMP280;59767;51.344;12.362;2023-02-10T10:38:52;159997.41;;;5.34
71897;BMP280;59767;51.344;12.362;2023-02-10T10:41:58;159998.75;;;5.35
71897;BMP280;59767;51.344;12.362;2023-02-10T10:45:17;160027.44;;;5.46
71897;BMP280;59767;51.344;12.362;2023-02-10T10:48:24;160039.19;;;5.50
71897;BMP280;59767;51.344;12.362;2023-02-10T10:51:32;159993.50;;;5.33
71897;BMP280;59767;51.344;12.362;2023-02-10T10:54:37;159998.75;;;5.35
71897;BMP280;59767;51.344;12.362;2023-02-10T10:57:45;159994.81;;;5.33
71897;BMP280;59767;51.344;12.362;2023-02-10T11:01:00;160024.84;;;5.45
71897;BMP280;59767;51.344;12.362;2023-02-10T11:04:17;160014.34;;;5.41
71897;BMP280;59767;51.344;12.362;2023-02-10T11:07:22;159984.34;;;5.29
71897;BMP280;59767;51.344;12.362;2023-02-10T11:10:35;159993.50;;;5.33
71897;BMP280;59767;51.344;12.362;2023-02-10T11:13:49;159959.56;;;5.20
71897;BMP280;59767;51.344;12.362;2023-02-10T11:16:57;159983.06;;;5.29
71897;BMP280;59767;51.344;12.362;2023-02-10T11:23:16;159975.25;;;5.26
71897;BMP280;59767;51.344;12.362;2023-02-10T11:26:23;160053.53;;;5.56
71897;BMP280;59767;51.344;12.362;2023-02-10T11:29:51;160087.41;;;5.69
71897;BMP280;59767;51.344;12.362;2023-02-10T11:32:54;160069.19;;;5.62
71897;BMP280;59767;51.344;12.362;2023-02-10T11:36:07;160082.22;;;5.67
71897;BMP280;59767;51.344;12.362;2023-02-10T11:39:35;160084.81;;;5.68
71897;BMP280;59767;51.344;12.362;2023-02-10T11:42:39;160087.41;;;5.69
71897;BMP280;59767;51.344;12.362;2023-02-10T11:45:55;160103.13;;;5.75
71897;BMP280;59767;51.344;12.362;2023-02-10T11:49:03;160129.19;;;5.85
71897;BMP280;59767;51.344;12.362;2023-02-10T11:52:09;160172.28;;;6.02
71897;BMP280;59767;51.344;12.362;2023-02-10T11:55:15;160194.47;;;6.10
71897;BMP280;59767;51.344;12.362;2023-02-10T12:02:06;160236.25;;;6.26
71897;BMP280;59767;51.344;12.362;2023-02-10T12:05:28;160193.16;;;6.10
71897;BMP280;59767;51.344;12.362;2023-02-10T12:11:57;160210.16;;;6.16
71897;BMP280;59767;51.344;12.362;2023-02-10T12:15:43;160228.38;;;6.23
71897;BMP280;59767;51.344;12.362;2023-02-10T12:19:01;160302.78;;;6.52
71897;BMP280;59767;51.344;12.362;2023-02-10T12:22:28;160267.56;;;6.38
71897;BMP280;59767;51.344;12.362;2023-02-10T12:25:54;160266.25;;;6.38
71897;BMP280;59767;51.344;12.362;2023-02-10T12:29:11;160245.38;;;6.30
71897;BMP280;59767;51.344;12.362;2023-02-10T12:36:18;160285.88;;;6.45
71897;BMP280;59767;51.344;12.362;2023-02-10T12:39:44;160338.06;;;6.65
71897;BMP280;59767;51.344;12.362;2023-02-10T12:47:27;160330.22;;;6.62
71897;BMP280;59767;51.344;12.362;2023-02-10T12:53:50;160291.06;;;6.47
71897;BMP280;59767;51.344;12.362;2023-02-10T13:00:40;160255.84;;;6.34
71897;BMP280;59767;51.344;12.362;2023-02-10T13:03:47;160254.53;;;6.33
71897;BMP280;59767;51.344;12.362;2023-02-10T13:07:07;160244.09;;;6.29
71897;BMP280;59767;51.344;12.362;2023-02-10T13:10:40;160295.00;;;6.49
71897;BMP280;59767;51.344;12.362;2023-02-10T13:13:46;160281.91;;;6.44
71897;BMP280;59767;51.344;12.362;2023-02-10T13:16:55;160345.91;;;6.68
71897;BMP280;59767;51.344;12.362;2023-02-10T13:20:22;160309.38;;;6.54
71897;BMP280;59767;51.344;12.362;2023-02-10T13:23:55;160319.78;;;6.58
71897;BMP280;59767;51.344;12.362;2023-02-10T13:27:32;160342.00;;;6.67
71897;BMP280;59767;51.344;12.362;2023-02-10T13:30:47;160356.41;;;6.72
71897;BMP280;59767;51.344;12.362;2023-02-10T13:37:26;160391.63;;;6.86
71897;BMP280;59767;51.344;12.362;2023-02-10T13:40:49;160353.75;;;6.71
71897;BMP280;59767;51.344;12.362;2023-02-10T13:43:56;160369.38;;;6.77
71897;BMP280;59767;51.344;12.362;2023-02-10T13:47:12;160355.09;;;6.72
71897;BMP280;59767;51.344;12.362;2023-02-10T13:50:29;160314.59;;;6.56
71897;BMP280;59767;51.344;12.362;2023-02-10T13:56:39;160283.25;;;6.44
71897;BMP280;59767;51.344;12.362;2023-02-10T13:59:43;160296.31;;;6.49
71897;BMP280;59767;51.344;12.362;2023-02-10T14:03:19;160257.13;;;6.34
71897;BMP280;59767;51.344;12.362;2023-02-10T14:06:35;160253.22;;;6.33
71897;BMP280;59767;51.344;12.362;2023-02-10T14:09:40;160223.22;;;6.21
71897;BMP280;59767;51.344;12.362;2023-02-10T14:19:35;160202.31;;;6.13
71897;BMP280;59767;51.344;12.362;2023-02-10T14:22:41;160197.06;;;6.11
71897;BMP280;59767;51.344;12.362;2023-02-10T14:25:46;160214.06;;;6.18
71897;BMP280;59767;51.344;12.362;2023-02-10T14:28:56;160186.69;;;6.07
71897;BMP280;59767;51.344;12.362;2023-02-10T14:32:03;160173.59;;;6.02
71897;BMP280;59767;51.344;12.362;2023-02-10T14:35:21;160167.03;;;6.00
71897;BMP280;59767;51.344;12.362;2023-02-10T14:38:33;160174.88;;;6.03
71897;BMP280;59767;51.344;12.362;2023-02-10T14:41:38;160167.03;;;6.00
71897;BMP280;59767;51.344;12.362;2023-02-10T14:44:49;160168.38;;;6.00
71897;BMP280;59767;51.344;12.362;2023-02-10T14:47:55;160170.97;;;6.01
71897;BMP280;59767;51.344;12.362;2023-02-10T14:51:07;160202.31;;;6.13
71897;BMP280;59767;51.344;12.362;2023-02-10T14:54:22;160212.75;;;6.17
71897;BMP280;59767;51.344;12.362;2023-02-10T14:57:27;160199.66;;;6.12
71897;BMP280;59767;51.344;12.362;2023-02-10T15:00:32;160190.59;;;6.09
71897;BMP280;59767;51.344;12.362;2023-02-10T15:03:38;160134.41;;;5.87
71897;BMP280;59767;51.344;12.362;2023-02-10T15:06:46;160114.88;;;5.80
71897;BMP280;59767;51.344;12.362;2023-02-10T15:09:52;160093.97;;;5.71
71897;BMP280;59767;51.344;12.362;2023-02-10T15:12:58;160070.53;;;5.62
71897;BMP280;59767;51.344;12.362;2023-02-10T15:16:05;160031.34;;;5.47
71897;BMP280;59767;51.344;12.362;2023-02-10T15:19:15;160023.50;;;5.44
71897;BMP280;59767;51.344;12.362;2023-02-10T15:22:38;159990.91;;;5.32
71897;BMP280;59767;51.344;12.362;2023-02-10T15:25:45;159970.00;;;5.24
71897;BMP280;59767;51.344;12.362;2023-02-10T15:29:05;159945.22;;;5.14
71897;BMP280;59767;51.344;12.362;2023-02-10T15:32:21;159937.41;;;5.11
71897;BMP280;59767;51.344;12.362;2023-02-10T15:35:26;159924.34;;;5.06
71897;BMP280;59767;51.344;12.362;2023-02-10T15:38:31;159924.34;;;5.06
71897;BMP280;59767;51.344;12.362;2023-02-10T15:41:56;159911.31;;;5.01
71897;BMP280;59767;51.344;12.362;2023-02-10T15:45:03;159894.31;;;4.95
71897;BMP280;59767;51.344;12.362;2023-02-10T15:48:21;159866.97;;;4.84
71897;BMP280;59767;51.344;12.362;2023-02-10T15:51:48;159865.66;;;4.84
71897;BMP280;59767;51.344;12.362;2023-02-10T15:54:59;159857.81;;;4.81
71897;BMP280;59767;51.344;12.362;2023-02-10T15:58:03;159830.41;;;4.70
71897;BMP280;59767;51.344;12.362;2023-02-10T16:01:08;159826.50;;;4.69
71897;BMP280;59767;51.344;12.362;2023-02-10T16:04:12;159818.66;;;4.66
71897;BMP280;59767;51.344;12.362;2023-02-10T16:07:24;159782.13;;;4.52
71897;BMP280;59767;51.344;12.362;2023-02-10T16:10:30;159771.75;;;4.48
71897;BMP280;59767;51.344;12.362;2023-02-10T16:13:35;159756.09;;;4.42
71897;BMP280;59767;51.344;12.362;2023-02-10T16:16:44;159728.69;;;4.31
71897;BMP280;59767;51.344;12.362;2023-02-10T16:19:49;159706.53;;;4.23
71897;BMP280;59767;51.344;12.362;2023-02-10T16:22:54;159694.75;;;4.18
71897;BMP280;59767;51.344;12.362;2023-02-10T16:25:58;159693.47;;;4.18
71897;BMP280;59767;51.344;12.362;2023-02-10T16:29:04;159683.00;;;4.14
71897;BMP280;59767;51.344;12.362;2023-02-10T16:32:07;159666.09;;;4.07
71897;BMP280;59767;51.344;12.362;2023-02-10T16:35:14;159658.25;;;4.04
71897;BMP280;59767;51.344;12.362;2023-02-10T16:38:19;159657.00;;;4.04
71897;BMP280;59767;51.344;12.362;2023-02-10T16:41:23;159655.66;;;4.03
71897;BMP280;59767;51.344;12.362;2023-02-10T16:44:27;159654.34;;;4.03
71897;BMP280;59767;51.344;12.362;2023-02-10T16:47:31;159657.00;;;4.04
71897;BMP280;59767;51.344;12.362;2023-02-10T16:50:39;159667.41;;;4.08
71897;BMP280;59767;51.344;12.362;2023-02-10T16:53:43;159653.06;;;4.02
71897;BMP280;59767;51.344;12.362;2023-02-10T16:56:47;159666.09;;;4.07
71897;BMP280;59767;51.344;12.362;2023-02-10T16:59:52;159663.50;;;4.06
71897;BMP280;59767;51.344;12.362;2023-02-10T17:02:57;159663.50;;;4.06
71897;BMP280;59767;51.344;12.362;2023-02-10T17:06:03;159670.00;;;4.09
71897;BMP280;59767;51.344;12.362;2023-02-10T17:09:15;159670.00;;;4.09
71897;BMP280;59767;51.344;12.362;2023-02-10T17:12:19;159676.50;;;4.11
71897;BMP280;59767;51.344;12.362;2023-02-10T17:15:24;159679.09;;;4.12
71897;BMP280;59767;51.344;12.362;2023-02-10T17:18:28;159689.56;;;4.16
71897;BMP280;59767;51.344;12.362;2023-02-10T17:21:32;159677.81;;;4.12
71897;BMP280;59767;51.344;12.362;2023-02-10T17:24:37;159683.00;;;4.14
71897;BMP280;59767;51.344;12.362;2023-02-10T17:27:41;159662.19;;;4.06
71897;BMP280;59767;51.344;12.362;2023-02-10T17:30:45;159616.56;;;3.88
71897;BMP280;59767;51.344;12.362;2023-02-10T17:33:50;159610.03;;;3.86
71897;BMP280;59767;51.344;12.362;2023-02-10T17:36:54;159596.97;;;3.81
71897;BMP280;59767;51.344;12.362;2023-02-10T17:39:59;159578.75;;;3.74
71897;BMP280;59767;51.344;12.362;2023-02-10T17:43:18;159563.09;;;3.68
71897;BMP280;59767;51.344;12.362;2023-02-10T17:46:23;159560.50;;;3.67
71897;BMP280;59767;51.344;12.362;2023-02-10T17:49:30;159555.28;;;3.65
71897;BMP280;59767;51.344;12.362;2023-02-10T17:52:34;159533.13;;;3.56
71897;BMP280;59767;51.344;12.362;2023-02-10T17:55:41;159518.75;;;3.50
71897;BMP280;59767;51.344;12.362;2023-02-10T17:58:46;159507.03;;;3.46
71897;BMP280;59767;51.344;12.362;2023-02-10T18:01:51;159507.03;;;3.46
71897;BMP280;59767;51.344;12.362;2023-02-10T18:04:59;159491.44;;;3.40
71897;BMP280;59767;51.344;12.362;2023-02-10T18:08:03;159474.47;;;3.33
71897;BMP280;59767;51.344;12.362;2023-02-10T18:11:07;159445.78;;;3.22
71897;BMP280;59767;51.344;12.362;2023-02-10T18:14:12;159430.13;;;3.16
71897;BMP280;59767;51.344;12.362;2023-02-10T18:17:16;159436.69;;;3.19
71897;BMP280;59767;51.344;12.362;2023-02-10T18:20:20;159401.44;;;3.05
71897;BMP280;59767;51.344;12.362;2023-02-10T18:23:25;159388.44;;;3.00
71897;BMP280;59767;51.344;12.362;2023-02-10T18:26:29;159381.91;;;2.98
71897;BMP280;59767;51.344;12.362;2023-02-10T18:29:33;159374.06;;;2.95
71897;BMP280;59767;51.344;12.362;2023-02-10T18:32:37;159372.75;;;2.94
71897;BMP280;59767;51.344;12.362;2023-02-10T18:35:45;159358.50;;;2.89
71897;BMP280;59767;51.344;12.362;2023-02-10T18:38:49;159375.41;;;2.95
71897;BMP280;59767;51.344;12.362;2023-02-10T18:41:54;159384.53;;;2.99
71897;BMP280;59767;51.344;12.362;2023-02-10T18:44:58;159397.53;;;3.04
71897;BMP280;59767;51.344;12.362;2023-02-10T18:48:02;159427.53;;;3.15
71897;BMP280;59767;51.344;12.362;2023-02-10T18:51:07;159440.53;;;3.20
71897;BMP280;59767;51.344;12.362;2023-02-10T18:54:11;159474.47;;;3.33
71897;BMP280;59767;51.344;12.362;2023-02-10T18:57:15;159479.66;;;3.35
71897;BMP280;59767;51.344;12.362;2023-02-10T19:00:20;159503.09;;;3.44
71897;BMP280;59767;51.344;12.362;2023-02-10T19:03:24;159503.09;;;3.44